Time;durP1;ratioP1;P1;durP2;ratioP2;P2;SDS_P1;SDS_P2;PMS_P1;PMS_P2;Temp;Humidity;BMP_temperature;BMP_pressure;BME280_temperature;BME280_humidity;BME280_pressure;Samples;Min_cycle;Max_cycle;Signal;HPM_P1;HPM_P2
2022/01/05 00:02:09;;;;;;;3.53;1.50;;;21.50;75.70;;;;;;7776645;28;20207;-55
2022/01/05 00:05:54;;;;;;;4.80;1.40;;;21.40;75.50;;;;;;7776547;28;20286;-55
2022/01/05 00:09:40;;;;;;;3.83;1.65;;;21.40;75.60;;;;;;7776147;28;20237;-55
2022/01/05 00:13:25;;;;;;;4.07;1.20;;;21.40;75.60;;;;;;7776618;28;20182;-52
2022/01/05 00:17:11;;;;;;;3.88;1.67;;;21.40;75.50;;;;;;7782062;28;20203;-55
2022/01/05 00:20:57;;;;;;;5.50;1.38;;;21.40;75.50;;;;;;7782086;28;20257;-52
2022/01/05 00:24:43;;;;;;;2.13;1.13;;;21.30;75.50;;;;;;7782226;28;20259;-53
2022/01/05 00:28:29;;;;;;;4.28;1.23;;;21.30;75.50;;;;;;7781895;28;20183;-55
2022/01/05 00:32:15;;;;;;;1.63;1.10;;;21.30;75.50;;;;;;7782006;28;20183;-56
2022/01/05 00:36:00;;;;;;;2.53;1.00;;;21.20;75.40;;;;;;7781758;28;20242;-56
2022/01/05 00:39:46;;;;;;;2.80;1.08;;;21.20;75.40;;;;;;7781476;28;20663;-51
2022/01/05 00:43:31;;;;;;;6.63;1.30;;;21.20;75.50;;;;;;7781726;28;20176;-56
2022/01/05 00:47:17;;;;;;;3.15;0.98;;;21.20;75.40;;;;;;7781432;28;20210;-57
2022/01/05 00:51:03;;;;;;;2.05;1.20;;;21.10;75.40;;;;;;7781122;28;20183;-55
2022/01/05 00:54:49;;;;;;;1.88;1.10;;;21.10;75.40;;;;;;7781281;28;20187;-54
2022/01/05 00:58:35;;;;;;;1.33;0.90;;;21.10;75.40;;;;;;7781025;28;20175;-58
2022/01/05 01:02:20;;;;;;;4.43;1.30;;;21.10;75.30;;;;;;7781234;28;20175;-57
2022/01/05 01:06:06;;;;;;;4.22;0.98;;;21.10;75.40;;;;;;7780903;28;20195;-56
2022/01/05 01:09:51;;;;;;;8.60;1.30;;;21.00;75.30;;;;;;7780663;28;20206;-56
2022/01/05 01:13:37;;;;;;;2.22;1.10;;;21.00;75.30;;;;;;7780733;28;20591;-56
2022/01/05 01:17:22;;;;;;;2.40;1.10;;;21.00;75.30;;;;;;7780570;28;20206;-55
2022/01/05 01:21:09;;;;;;;3.92;1.08;;;21.00;75.20;;;;;;7780404;28;20211;-53
2022/01/05 01:24:54;;;;;;;2.90;1.00;;;20.90;75.20;;;;;;7780310;28;20267;-55
2022/01/05 01:28:40;;;;;;;5.40;1.10;;;21.00;75.20;;;;;;7779356;28;20172;-53
2022/01/05 01:32:25;;;;;;;3.30;1.48;;;20.90;75.20;;;;;;7779830;28;20180;-52
2022/01/05 01:36:11;;;;;;;3.58;0.90;;;20.90;75.10;;;;;;7780140;28;20839;-57
2022/01/05 01:39:57;;;;;;;4.75;0.85;;;20.90;75.20;;;;;;7779803;28;20265;-52
2022/01/05 01:43:42;;;;;;;4.43;1.00;;;20.90;75.20;;;;;;7780063;28;20171;-54
2022/01/05 01:47:28;;;;;;;3.53;0.90;;;20.80;75.20;;;;;;7780074;28;20199;-55
2022/01/05 01:51:14;;;;;;;1.60;1.15;;;20.80;75.10;;;;;;7780139;28;20186;-56
2022/01/05 01:55:00;;;;;;;1.30;0.85;;;20.80;75.10;;;;;;7779918;28;20184;-52
2022/01/05 01:58:48;;;;;;;1.88;0.93;;;20.80;75.10;;;;;;7779618;28;20207;-56
2022/01/05 02:02:35;;;;;;;2.63;1.05;;;20.70;75.10;;;;;;7780044;28;20184;-53
2022/01/05 02:06:21;;;;;;;0.80;0.80;;;20.70;75.10;;;;;;7779929;28;20672;-55
2022/01/05 02:10:08;;;;;;;1.70;0.90;;;20.70;75.10;;;;;;7779322;28;20564;-56
2022/01/05 02:13:54;;;;;;;1.63;0.70;;;20.70;75.10;;;;;;7779476;28;20257;-52
2022/01/05 02:18:07;;;;;;;1.00;0.70;;;20.70;75.10;;;;;;7778668;28;20703;-55
2022/01/05 02:21:52;;;;;;;0.65;0.55;;;20.60;75.10;;;;;;7778775;28;20207;-53
2022/01/05 02:25:38;;;;;;;1.05;0.70;;;20.60;75.00;;;;;;7778705;28;20202;-56
2022/01/05 02:29:24;;;;;;;0.77;0.60;;;20.60;75.10;;;;;;7778371;28;20191;-53
2022/01/05 02:33:10;;;;;;;2.83;0.70;;;20.60;75.00;;;;;;7778527;28;20262;-56
2022/01/05 02:36:55;;;;;;;1.50;0.73;;;20.60;75.00;;;;;;7778211;28;20199;-56
2022/01/05 02:40:41;;;;;;;1.52;0.80;;;20.50;74.80;;;;;;7777013;28;20677;-52
2022/01/05 02:44:26;;;;;;;0.88;0.60;;;20.50;74.90;;;;;;7778099;28;20168;-54
2022/01/05 02:48:11;;;;;;;0.82;0.50;;;20.50;74.80;;;;;;7777769;28;20239;-56
2022/01/05 02:51:57;;;;;;;1.17;0.47;;;20.50;74.80;;;;;;7777912;28;20168;-55
2022/01/05 02:55:42;;;;;;;0.60;0.60;;;20.40;74.80;;;;;;7777816;28;20286;-55
2022/01/05 02:59:29;;;;;;;0.88;0.50;;;20.40;74.90;;;;;;7777426;28;20214;-55
2022/01/05 03:03:15;;;;;;;0.60;0.60;;;20.40;74.90;;;;;;7777773;28;20180;-57
2022/01/05 03:07:00;;;;;;;1.75;0.68;;;20.40;74.90;;;;;;7777433;28;20202;-54
2022/01/05 03:10:46;;;;;;;2.97;0.80;;;20.40;74.90;;;;;;7777302;28;20187;-56
2022/01/05 03:14:31;;;;;;;1.63;0.60;;;20.30;74.70;;;;;;7777429;28;20877;-56
2022/01/05 03:18:17;;;;;;;0.75;0.55;;;20.30;74.70;;;;;;7776889;28;20322;-56
2022/01/05 03:22:03;;;;;;;1.67;0.80;;;20.30;74.70;;;;;;7777155;28;20221;-54
2022/01/05 03:25:48;;;;;;;2.42;0.50;;;20.30;74.70;;;;;;7777184;28;20576;-56
2022/01/05 03:29:34;;;;;;;0.40;0.40;;;20.30;74.70;;;;;;7776877;28;20203;-52
2022/01/05 03:33:21;;;;;;;1.13;0.40;;;20.30;74.70;;;;;;7776977;28;20653;-51
2022/01/05 03:37:07;;;;;;;1.38;0.60;;;20.30;74.80;;;;;;7776825;28;20191;-56
2022/01/05 03:40:52;;;;;;;0.90;0.60;;;20.20;74.80;;;;;;7776560;28;20203;-53
2022/01/05 03:44:38;;;;;;;0.50;0.40;;;20.20;74.80;;;;;;7776851;28;20202;-53
2022/01/05 03:48:24;;;;;;;0.60;0.43;;;20.20;74.80;;;;;;7776500;28;20195;-52
2022/01/05 03:52:09;;;;;;;0.43;0.40;;;20.20;74.80;;;;;;7776823;28;20186;-55
2022/01/05 03:55:55;;;;;;;0.40;0.40;;;20.20;74.80;;;;;;7777088;28;20207;-50
2022/01/05 03:59:40;;;;;;;0.65;0.40;;;20.20;74.80;;;;;;7776660;28;20203;-51
2022/01/05 04:03:26;;;;;;;2.83;0.50;;;20.10;74.80;;;;;;7776575;28;20265;-55
2022/01/05 04:07:12;;;;;;;0.30;0.30;;;20.10;74.80;;;;;;7776452;28;20290;-52
2022/01/05 04:10:57;;;;;;;0.40;0.40;;;20.10;74.80;;;;;;7776152;28;20190;-52
2022/01/05 04:14:43;;;;;;;2.47;0.60;;;20.10;74.80;;;;;;7776258;28;20188;-53
2022/01/05 04:18:28;;;;;;;1.50;0.35;;;20.10;74.90;;;;;;7775864;28;20233;-54
2022/01/05 04:22:15;;;;;;;2.47;0.50;;;20.00;74.80;;;;;;7776037;28;20260;-54
2022/01/05 04:26:00;;;;;;;0.30;0.30;;;20.00;74.80;;;;;;7776095;28;20195;-54
2022/01/05 04:29:45;;;;;;;0.40;0.40;;;20.00;74.90;;;;;;7775853;28;20230;-55
2022/01/05 04:33:31;;;;;;;0.55;0.35;;;20.00;75.00;;;;;;7776070;28;20201;-57
2022/01/05 04:37:17;;;;;;;0.47;0.40;;;20.00;75.00;;;;;;7775888;28;20195;-55
2022/01/05 04:41:02;;;;;;;1.02;0.32;;;20.00;75.10;;;;;;7775557;28;20265;-54
2022/01/05 04:44:48;;;;;;;0.30;0.30;;;19.90;75.10;;;;;;7775965;28;20262;-53
2022/01/05 04:48:33;;;;;;;1.27;0.30;;;19.90;75.10;;;;;;7775492;28;20188;-56
2022/01/05 04:52:19;;;;;;;0.40;0.30;;;19.90;75.10;;;;;;7775746;28;20577;-55
2022/01/05 04:56:04;;;;;;;0.35;0.30;;;19.90;75.20;;;;;;7775538;28;20215;-52
2022/01/05 04:59:50;;;;;;;0.20;0.20;;;19.90;75.20;;;;;;7775380;28;20207;-52
2022/01/05 05:03:37;;;;;;;0.82;0.30;;;19.90;75.20;;;;;;7779714;28;20174;-53
2022/01/05 05:07:22;;;;;;;3.47;0.30;;;19.80;75.10;;;;;;7781281;28;20200;-55
2022/01/05 05:11:08;;;;;;;0.88;0.30;;;19.80;75.20;;;;;;7780670;28;20241;-54
2022/01/05 05:14:53;;;;;;;2.17;0.30;;;19.80;75.20;;;;;;7780553;28;20202;-55
2022/01/05 05:18:39;;;;;;;0.40;0.40;;;19.80;75.20;;;;;;7780343;28;20187;-56
2022/01/05 05:22:25;;;;;;;0.20;0.20;;;19.80;75.20;;;;;;7780585;28;20187;-56
2022/01/05 05:26:10;;;;;;;2.58;0.57;;;19.80;75.30;;;;;;7780549;28;20572;-54
2022/01/05 05:29:56;;;;;;;1.95;0.30;;;19.80;75.20;;;;;;7780350;28;20180;-54
2022/01/05 05:33:41;;;;;;;0.22;0.22;;;19.80;75.30;;;;;;7780794;28;20183;-53
2022/01/05 05:37:27;;;;;;;0.30;0.30;;;19.70;75.20;;;;;;7780382;28;20223;-51
2022/01/05 05:41:12;;;;;;;0.45;0.30;;;19.80;75.40;;;;;;7780027;28;20685;-53
2022/01/05 05:44:58;;;;;;;7.53;0.90;;;19.70;75.20;;;;;;7780052;28;20234;-55
2022/01/05 05:48:43;;;;;;;9.20;1.50;;;19.70;75.30;;;;;;7779714;28;20184;-50
2022/01/05 05:52:29;;;;;;;8.43;1.30;;;19.80;75.50;;;;;;7802234;28;20210;-52
2022/01/05 05:56:14;;;;;;;6.50;0.93;;;19.80;75.50;;;;;;7809557;28;20700;-55
2022/01/05 06:00:00;;;;;;;8.38;1.00;;;19.80;75.20;;;;;;7809679;28;20198;-51
2022/01/05 06:03:45;;;;;;;11.18;1.17;;;19.80;75.20;;;;;;7807772;28;20187;-52
2022/01/05 06:07:31;;;;;;;6.82;1.33;;;19.80;75.20;;;;;;7808604;28;20569;-52
2022/01/05 06:11:17;;;;;;;13.35;1.33;;;19.80;75.10;;;;;;7809221;28;20214;-56
2022/01/05 06:15:02;;;;;;;10.52;1.10;;;19.70;75.10;;;;;;7808450;28;20195;-53
2022/01/05 06:18:48;;;;;;;5.95;0.93;;;19.70;75.00;;;;;;7808072;28;20187;-51
2022/01/05 06:22:40;;;;;;;7.07;1.08;;;19.70;75.00;;;;;;7808748;28;20175;-52
2022/01/05 06:26:26;;;;;;;3.28;1.00;;;19.70;75.00;;;;;;7808179;28;20194;-52
2022/01/05 06:30:12;;;;;;;4.95;0.80;;;19.70;75.00;;;;;;7808749;28;20186;-52
2022/01/05 06:33:57;;;;;;;8.90;0.80;;;19.70;74.90;;;;;;7809050;28;20182;-54
2022/01/05 06:37:43;;;;;;;5.20;0.63;;;19.70;75.00;;;;;;7808569;28;20209;-53
2022/01/05 06:41:28;;;;;;;5.15;0.80;;;19.70;74.90;;;;;;7808500;28;20700;-55
2022/01/05 06:45:14;;;;;;;5.10;0.88;;;19.70;75.00;;;;;;7808739;28;20586;-53
2022/01/05 06:48:59;;;;;;;4.40;1.02;;;19.70;74.90;;;;;;7808269;28;20277;-55
2022/01/05 06:52:45;;;;;;;13.15;0.93;;;19.70;74.80;;;;;;7808381;28;20178;-53
2022/01/05 06:56:30;;;;;;;9.07;0.85;;;19.70;74.70;;;;;;7807781;28;20567;-51
2022/01/05 07:00:16;;;;;;;11.77;1.23;;;19.70;74.80;;;;;;7808012;28;20273;-53
2022/01/05 07:04:02;;;;;;;8.45;1.10;;;19.70;74.70;;;;;;7808575;28;20178;-57
2022/01/05 07:07:48;;;;;;;3.50;1.00;;;19.70;74.80;;;;;;7807515;28;20249;-54
2022/01/05 07:11:33;;;;;;;3.88;1.10;;;19.70;74.70;;;;;;7808184;28;20672;-54
2022/01/05 07:15:19;;;;;;;6.57;1.00;;;19.70;74.60;;;;;;7807758;28;20684;-53
2022/01/05 07:19:04;;;;;;;3.53;0.95;;;19.70;74.60;;;;;;7807540;28;20207;-53
2022/01/05 07:22:49;;;;;;;3.72;1.00;;;19.60;74.50;;;;;;7807834;28;20179;-56
2022/01/05 07:26:35;;;;;;;2.45;0.73;;;19.60;74.40;;;;;;7807111;28;20190;-56
2022/01/05 07:30:20;;;;;;;6.28;1.52;;;19.60;74.30;;;;;;7807200;28;20228;-55
2022/01/05 07:34:06;;;;;;;2.35;1.00;;;19.60;74.30;;;;;;7807912;28;20187;-53
2022/01/05 07:37:51;;;;;;;6.30;1.15;;;19.60;74.30;;;;;;7807238;28;20649;-51
2022/01/05 07:41:37;;;;;;;2.22;1.02;;;19.60;74.20;;;;;;7807494;28;20659;-54
2022/01/05 07:45:23;;;;;;;5.45;1.17;;;19.60;74.10;;;;;;7807126;28;20205;-53
2022/01/05 07:49:08;;;;;;;2.47;0.90;;;19.60;74.10;;;;;;7807189;28;20210;-51
2022/01/05 07:52:54;;;;;;;1.75;0.80;;;19.60;74.10;;;;;;7807255;28;20186;-51
2022/01/05 07:56:40;;;;;;;3.63;0.90;;;19.60;74.00;;;;;;7806788;28;20209;-52
2022/01/05 08:00:25;;;;;;;4.70;1.77;;;19.60;74.00;;;;;;7806780;28;20233;-55
2022/01/05 08:04:11;;;;;;;3.85;1.50;;;19.60;74.00;;;;;;7806801;28;20670;-52
2022/01/05 08:07:57;;;;;;;5.25;1.63;;;19.60;74.00;;;;;;7806100;28;20198;-55
2022/01/05 08:11:42;;;;;;;3.85;1.35;;;19.60;74.00;;;;;;7806766;28;20186;-50
2022/01/05 08:15:28;;;;;;;2.05;1.70;;;19.60;74.10;;;;;;7806672;28;20959;-51
2022/01/05 08:19:13;;;;;;;2.20;1.40;;;19.60;74.00;;;;;;7806487;28;20213;-52
2022/01/05 08:22:59;;;;;;;4.13;1.35;;;19.60;74.00;;;;;;7806509;28;20207;-56
2022/01/05 08:26:44;;;;;;;7.45;1.52;;;19.60;73.80;;;;;;7806568;28;20197;-54
2022/01/05 08:30:33;;;;;;;4.13;1.50;;;19.60;73.90;;;;;;7806336;28;20609;-52
2022/01/05 08:34:19;;;;;;;3.03;1.52;;;19.60;73.70;;;;;;7806453;28;20175;-51
2022/01/05 08:38:05;;;;;;;2.70;1.40;;;19.60;73.60;;;;;;7811425;28;20229;-55
2022/01/05 08:41:52;;;;;;;1.83;1.25;;;19.60;73.40;;;;;;7812346;28;20206;-55
2022/01/05 08:45:37;;;;;;;2.78;1.50;;;19.60;73.30;;;;;;7812069;28;20202;-51
2022/01/05 08:49:23;;;;;;;3.75;1.40;;;19.60;74.20;;;;;;7811931;28;20241;-54
2022/01/05 08:53:09;;;;;;;2.38;1.25;;;19.60;73.20;;;;;;7812092;28;20175;-53
2022/01/05 08:56:55;;;;;;;10.35;1.50;;;19.60;73.30;;;;;;7812053;28;20229;-55
2022/01/05 09:00:40;;;;;;;1.95;1.20;;;19.60;73.70;;;;;;7811362;28;20202;-54
2022/01/05 09:04:26;;;;;;;5.57;1.42;;;19.60;73.80;;;;;;7811860;28;20232;-51
2022/01/05 09:08:12;;;;;;;4.72;1.92;;;19.60;73.50;;;;;;7811439;28;20202;-51
2022/01/05 09:11:58;;;;;;;3.70;1.15;;;19.60;73.40;;;;;;7811271;28;20756;-53
2022/01/05 09:15:43;;;;;;;2.58;1.48;;;19.60;73.40;;;;;;7811468;28;20560;-52
2022/01/05 09:19:30;;;;;;;4.93;1.40;;;19.60;73.40;;;;;;7811184;28;20203;-54
2022/01/05 09:23:15;;;;;;;2.05;1.08;;;19.60;73.40;;;;;;7811072;28;20174;-55
2022/01/05 09:27:03;;;;;;;3.28;1.00;;;19.60;73.40;;;;;;7811122;28;20214;-52
2022/01/05 09:30:49;;;;;;;2.05;1.23;;;19.60;73.40;;;;;;7810797;28;20174;-55
2022/01/05 09:34:36;;;;;;;3.55;1.08;;;19.60;73.40;;;;;;7810970;28;20229;-57
2022/01/05 09:38:34;;;;;;;3.03;0.80;;;19.60;73.40;;;;;;7810741;28;20237;-53
2022/01/05 09:42:20;;;;;;;1.75;0.88;;;19.60;73.50;;;;;;7810830;28;20202;-52
2022/01/05 09:46:29;;;;;;;4.80;1.08;;;19.60;73.50;;;;;;7810532;28;20329;-51
2022/01/05 09:50:15;;;;;;;2.97;0.98;;;19.60;73.70;;;;;;7809675;28;20178;-52
2022/01/05 09:54:01;;;;;;;1.52;0.90;;;19.60;73.60;;;;;;7810306;28;20266;-53
2022/01/05 09:57:47;;;;;;;1.60;1.00;;;19.60;73.60;;;;;;7807848;28;20202;-56
2022/01/05 10:01:36;;;;;;;4.68;1.10;;;19.60;73.50;;;;;;7807537;28;20233;-53
2022/01/05 10:05:21;;;;;;;2.70;0.88;;;19.60;73.50;;;;;;7809047;28;20198;-52
2022/01/05 10:09:08;;;;;;;8.68;1.35;;;19.60;73.50;;;;;;7808444;28;20236;-52
2022/01/05 10:12:53;;;;;;;5.70;1.10;;;19.60;73.10;;;;;;7808635;28;20189;-51
2022/01/05 10:17:06;;;;;;;4.82;1.13;;;19.60;73.40;;;;;;7808491;28;20222;-53
2022/01/05 10:21:02;;;;;;;6.45;1.15;;;19.50;73.40;;;;;;7808470;28;20273;-52
2022/01/05 10:24:48;;;;;;;3.50;1.10;;;19.60;73.50;;;;;;7808700;28;20198;-54
2022/01/05 10:28:33;;;;;;;6.45;1.10;;;19.60;73.70;;;;;;7807005;28;20171;-54
2022/01/05 10:32:19;;;;;;;4.15;1.05;;;19.50;73.50;;;;;;7808884;28;20198;-53
2022/01/05 10:36:05;;;;;;;4.18;1.00;;;19.50;73.50;;;;;;7791967;28;20202;-53
2022/01/05 10:40:19;;;;;;;9.90;1.23;;;19.50;73.50;;;;;;7808452;28;20214;-51
2022/01/05 10:44:13;;;;;;;7.38;1.13;;;19.50;73.70;;;;;;7809084;28;20183;-56
2022/01/05 10:48:09;;;;;;;7.25;1.83;;;19.50;73.70;;;;;;7808692;28;20203;-54
2022/01/05 10:51:56;;;;;;;3.55;1.00;;;19.60;73.80;;;;;;7808732;28;20550;-54
2022/01/05 10:55:44;;;;;;;3.38;1.02;;;19.50;73.70;;;;;;7808998;28;20198;-55
2022/01/05 10:59:36;;;;;;;5.25;0.90;;;19.50;73.70;;;;;;7807236;28;20629;-55
2022/01/05 11:03:30;;;;;;;3.58;1.00;;;19.50;73.70;;;;;;7808356;28;20175;-55
2022/01/05 11:07:21;;;;;;;5.80;0.90;;;19.50;73.70;;;;;;7808299;28;20463;-56
2022/01/05 11:11:37;;;;;;;2.33;0.90;;;19.50;73.70;;;;;;7807924;28;20183;-53
2022/01/05 11:15:28;;;;;;;3.60;0.93;;;19.60;73.90;;;;;;7807882;28;20210;-56
2022/01/05 11:19:17;;;;;;;1.55;0.90;;;19.50;73.60;;;;;;7807591;28;20198;-53
2022/01/05 11:23:04;;;;;;;3.33;0.70;;;19.60;73.70;;;;;;7808003;28;20170;-53
2022/01/05 11:26:50;;;;;;;1.92;0.75;;;19.60;73.70;;;;;;7808175;28;20201;-56
2022/01/05 11:30:37;;;;;;;4.45;1.38;;;19.60;73.70;;;;;;7807368;28;20178;-56
2022/01/05 11:34:23;;;;;;;3.33;0.90;;;19.60;73.70;;;;;;7807429;28;20593;-57
2022/01/05 11:38:09;;;;;;;3.38;1.30;;;19.60;73.70;;;;;;7807077;28;20213;-56
2022/01/05 11:41:56;;;;;;;4.72;0.90;;;19.60;73.50;;;;;;7807360;28;20214;-56
2022/01/05 11:45:47;;;;;;;2.72;0.80;;;19.60;73.40;;;;;;7807434;28;20187;-55
2022/01/05 11:49:32;;;;;;;4.43;1.02;;;19.60;73.30;;;;;;7807243;28;20265;-51
2022/01/05 11:53:38;;;;;;;5.57;0.93;;;19.60;73.20;;;;;;7807168;28;20189;-53
2022/01/05 11:57:23;;;;;;;4.00;1.02;;;19.60;73.20;;;;;;7806988;28;20202;-53
2022/01/05 12:01:12;;;;;;;2.22;1.05;;;19.70;73.10;;;;;;7803026;28;20214;-55
2022/01/05 12:05:01;;;;;;;4.00;0.82;;;19.70;73.20;;;;;;7806909;28;20179;-54
2022/01/05 12:08:48;;;;;;;4.07;1.10;;;19.80;73.20;;;;;;7806758;28;20184;-53
2022/01/05 12:12:35;;;;;;;3.65;1.10;;;19.80;73.10;;;;;;7811356;28;20178;-55
2022/01/05 12:16:20;;;;;;;3.08;1.13;;;19.80;73.00;;;;;;7812909;28;20218;-55
2022/01/05 12:20:07;;;;;;;15.88;1.50;;;19.80;73.00;;;;;;7812839;28;20238;-52
2022/01/05 12:23:53;;;;;;;12.50;1.52;;;19.80;73.00;;;;;;7812833;28;20175;-52
2022/01/05 12:27:54;;;;;;;16.23;1.73;;;19.90;73.00;;;;;;7812341;28;20201;-56
2022/01/05 12:31:58;;;;;;;15.95;1.58;;;19.90;73.00;;;;;;7812767;28;20390;-55
2022/01/05 12:36:01;;;;;;;30.38;1.60;;;19.90;73.00;;;;;;7812434;28;20206;-52
2022/01/05 12:39:50;;;;;;;12.23;1.25;;;19.90;72.80;;;;;;7812204;28;20206;-52
2022/01/05 12:43:36;;;;;;;12.75;1.25;;;20.00;72.80;;;;;;7812824;28;20167;-55
2022/01/05 12:47:36;;;;;;;6.95;1.20;;;20.00;73.00;;;;;;7812116;28;20195;-53
2022/01/05 12:51:39;;;;;;;32.92;2.05;;;20.10;72.80;;;;;;7811933;28;20182;-56
2022/01/05 12:55:27;;;;;;;13.23;1.45;;;20.10;72.80;;;;;;7811894;28;20256;-52
2022/01/05 12:59:29;;;;;;;21.02;2.70;;;20.10;72.50;;;;;;7811732;28;20228;-55
2022/01/05 13:03:44;;;;;;;13.50;2.28;;;20.10;72.50;;;;;;7811688;28;20178;-54
2022/01/05 13:07:32;;;;;;;5.00;1.55;;;20.00;72.50;;;;;;7656434;29;20217;-54
2022/01/05 13:11:33;;;;;;;9.55;1.55;;;20.10;72.50;;;;;;7656822;29;20198;-54
2022/01/05 13:15:19;;;;;;;9.25;1.67;;;20.00;72.50;;;;;;7656411;29;20216;-53
2022/01/05 13:19:10;;;;;;;11.10;1.60;;;20.00;72.50;;;;;;7656335;29;20194;-51
2022/01/05 13:22:56;;;;;;;11.70;1.60;;;20.00;72.50;;;;;;7655467;29;20194;-56
2022/01/05 13:27:05;;;;;;;8.23;1.40;;;20.10;72.60;;;;;;7656357;29;20201;-53
2022/01/05 13:30:50;;;;;;;6.50;1.42;;;20.00;72.70;;;;;;7655978;29;20241;-56
2022/01/05 13:34:45;;;;;;;4.80;1.40;;;20.10;72.70;;;;;;7656701;29;20629;-55
2022/01/05 13:38:30;;;;;;;12.13;0.98;;;20.00;72.60;;;;;;7656548;29;20194;-56
2022/01/05 13:42:18;;;;;;;5.90;1.40;;;20.00;72.50;;;;;;7694182;28;20680;-56
2022/01/05 13:46:04;;;;;;;2.20;1.10;;;20.00;72.60;;;;;;7810754;28;20206;-56
2022/01/05 13:50:14;;;;;;;3.97;1.17;;;20.00;72.50;;;;;;7810464;28;20212;-55
2022/01/05 13:54:00;;;;;;;3.13;0.70;;;20.00;72.50;;;;;;7810217;28;20186;-54
2022/01/05 13:57:45;;;;;;;3.72;1.00;;;20.00;72.50;;;;;;7810084;28;20282;-50
2022/01/05 14:01:32;;;;;;;5.38;2.03;;;20.10;72.50;;;;;;7809987;28;20206;-51
2022/01/05 14:05:18;;;;;;;4.93;1.27;;;20.10;72.50;;;;;;7809908;28;20193;-51
2022/01/05 14:09:06;;;;;;;4.30;1.15;;;20.10;72.40;;;;;;7809710;28;20254;-52
2022/01/05 14:12:58;;;;;;;4.45;1.25;;;20.10;72.40;;;;;;7809832;28;20179;-54
2022/01/05 14:16:50;;;;;;;2.22;1.13;;;20.10;72.20;;;;;;7809529;28;20750;-51
2022/01/05 14:20:44;;;;;;;3.60;1.55;;;20.10;72.20;;;;;;7809010;28;20202;-54
2022/01/05 14:24:33;;;;;;;4.15;0.93;;;20.10;72.20;;;;;;7809499;28;20171;-55
2022/01/05 14:28:30;;;;;;;51.22;3.05;;;20.10;72.10;;;;;;7808960;28;20567;-55
2022/01/05 14:32:16;;;;;;;87.22;7.43;;;20.10;72.20;;;;;;7809110;28;20728;-56
2022/01/05 14:36:15;;;;;;;57.45;3.70;;;20.10;72.00;;;;;;7808938;28;20668;-55
2022/01/05 14:40:00;;;;;;;51.80;3.20;;;20.10;70.30;;;;;;7808738;28;20203;-53
2022/01/05 14:44:04;;;;;;;35.72;2.53;;;20.10;70.60;;;;;;7808792;28;20167;-52
2022/01/05 14:47:49;;;;;;;31.13;2.88;;;20.10;70.90;;;;;;7808420;28;20685;-57
2022/01/05 14:51:36;;;;;;;21.73;2.78;;;20.10;71.40;;;;;;7808718;28;20175;-54
2022/01/05 14:55:21;;;;;;;23.52;2.20;;;20.10;71.50;;;;;;7808482;28;20204;-55
2022/01/05 14:59:09;;;;;;;16.55;2.25;;;20.10;70.20;;;;;;7808281;28;20236;-56
2022/01/05 15:02:54;;;;;;;19.85;2.30;;;20.10;70.80;;;;;;7808360;28;20175;-54
2022/01/05 15:06:40;;;;;;;33.22;2.67;;;20.10;71.10;;;;;;7808111;28;20248;-56
2022/01/05 15:10:26;;;;;;;21.75;2.60;;;20.10;71.40;;;;;;7808127;28;20187;-55
2022/01/05 15:14:11;;;;;;;17.83;2.60;;;20.20;71.60;;;;;;7808369;28;20171;-56
2022/01/05 15:17:57;;;;;;;16.88;2.22;;;20.20;71.40;;;;;;7808009;28;20224;-57
2022/01/05 15:21:42;;;;;;;26.08;2.38;;;20.20;71.40;;;;;;7807654;28;20254;-56
2022/01/05 15:25:28;;;;;;;20.45;4.68;;;20.20;72.00;;;;;;7808417;28;20281;-52
2022/01/05 15:29:13;;;;;;;18.55;6.82;;;20.30;71.80;;;;;;7807952;28;20629;-56
2022/01/05 15:32:59;;;;;;;27.20;8.23;;;20.40;72.00;;;;;;7807790;28;20213;-55
2022/01/05 15:36:45;;;;;;;24.85;7.50;;;20.50;72.20;;;;;;7807666;28;20183;-56
2022/01/05 15:40:31;;;;;;;16.83;6.28;;;20.50;71.90;;;;;;7807265;28;20214;-55
2022/01/05 15:44:20;;;;;;;26.38;5.97;;;20.60;71.50;;;;;;7806950;28;20175;-56
2022/01/05 15:48:05;;;;;;;18.42;5.22;;;20.80;71.30;;;;;;7806585;28;20202;-56
2022/01/05 15:51:51;;;;;;;9.98;4.00;;;20.90;71.50;;;;;;7807347;28;20187;-57
2022/01/05 15:55:45;;;;;;;9.35;3.90;;;21.00;71.50;;;;;;7807326;28;20293;-55
2022/01/05 16:03:36;;;;;;;14.43;3.85;;;21.20;70.70;;;;;;7807511;28;20178;-53
2022/01/05 16:07:21;;;;;;;15.02;2.85;;;21.30;70.80;;;;;;7804870;28;20209;-54
2022/01/05 16:11:07;;;;;;;14.18;2.90;;;21.40;70.70;;;;;;7805612;28;20195;-52
2022/01/05 16:14:53;;;;;;;10.18;2.95;;;21.50;70.40;;;;;;7805918;28;20187;-52
2022/01/05 16:18:39;;;;;;;15.23;2.40;;;21.60;70.30;;;;;;7805551;28;20183;-54
2022/01/05 16:22:24;;;;;;;15.13;3.28;;;21.80;70.00;;;;;;7806069;28;20297;-55
2022/01/05 16:26:11;;;;;;;18.92;2.55;;;21.80;70.30;;;;;;7788212;28;20286;-55
2022/01/05 16:29:57;;;;;;;15.30;2.55;;;21.90;70.10;;;;;;7804875;28;20179;-55
2022/01/05 16:33:43;;;;;;;11.02;2.60;;;21.90;69.70;;;;;;7805920;28;20174;-54
2022/01/05 16:37:28;;;;;;;36.17;3.75;;;22.00;69.60;;;;;;7805248;28;20657;-56
2022/01/05 16:41:15;;;;;;;19.02;4.10;;;22.10;69.80;;;;;;7805223;28;20625;-55
2022/01/05 16:45:03;;;;;;;17.75;3.40;;;22.10;69.40;;;;;;7806145;28;20175;-54
2022/01/05 16:48:49;;;;;;;28.98;4.07;;;22.10;69.10;;;;;;7799925;28;20262;-56
2022/01/05 16:52:35;;;;;;;21.30;3.55;;;22.10;69.00;;;;;;7801386;28;20537;-56
2022/01/05 16:56:30;;;;;;;11.00;3.20;;;22.20;69.40;;;;;;7849794;22;20229;-58
2022/01/05 17:00:25;;;;;;;17.33;3.60;;;22.20;69.20;;;;;;7871168;28;20226;-59
2022/01/05 17:04:10;;;;;;;18.08;3.75;;;22.20;69.30;;;;;;7872838;28;20226;-60
2022/01/05 17:07:56;;;;;;;37.08;15.77;;;22.20;69.00;;;;;;7841974;28;20205;-58
2022/01/05 17:11:42;;;;;;;76.75;39.92;;;22.30;69.10;;;;;;7820149;28;20277;-58
2022/01/05 17:15:28;;;;;;;44.10;21.15;;;22.30;69.10;;;;;;7810583;28;20285;-58
2022/01/05 17:19:13;;;;;;;116.03;58.83;;;22.30;68.80;;;;;;7809500;28;20186;-60
2022/01/05 17:22:59;;;;;;;137.32;72.50;;;22.40;68.50;;;;;;7810546;28;20722;-59
2022/01/05 17:26:44;;;;;;;129.80;75.53;;;22.40;68.30;;;;;;7810307;28;20206;-58
2022/01/05 17:30:30;;;;;;;114.85;66.32;;;22.40;68.20;;;;;;7809295;28;20186;-57
2022/01/05 17:34:16;;;;;;;98.15;58.15;;;22.40;68.20;;;;;;7827598;28;20182;-58
2022/01/05 17:38:02;;;;;;;83.85;47.53;;;22.50;68.20;;;;;;7840084;28;20229;-58
2022/01/05 17:41:47;;;;;;;65.18;37.55;;;22.50;68.20;;;;;;7836023;28;20210;-59
2022/01/05 17:45:33;;;;;;;69.55;34.67;;;22.60;68.10;;;;;;7840357;28;20233;-60
2022/01/05 17:49:19;;;;;;;66.60;31.30;;;22.60;68.10;;;;;;7839395;28;20264;-58
2022/01/05 17:53:06;;;;;;;57.08;29.58;;;22.60;68.00;;;;;;7840071;28;20170;-58
2022/01/05 17:56:52;;;;;;;46.17;26.02;;;22.60;68.10;;;;;;7840098;28;20245;-59
2022/01/05 18:00:40;;;;;;;46.33;25.67;;;22.60;68.10;;;;;;7839012;28;20209;-58
2022/01/05 18:04:25;;;;;;;42.53;25.15;;;22.60;68.10;;;;;;7840119;28;20166;-57
2022/01/05 18:08:11;;;;;;;39.08;22.80;;;22.70;68.10;;;;;;7838304;28;20186;-59
2022/01/05 18:11:57;;;;;;;42.33;21.48;;;22.80;67.90;;;;;;7839445;28;20178;-58
2022/01/05 18:15:43;;;;;;;36.38;19.92;;;22.90;67.70;;;;;;7839683;28;20200;-58
2022/01/05 18:19:28;;;;;;;31.92;18.75;;;23.10;67.70;;;;;;7838504;28;20202;-59
2022/01/05 18:23:14;;;;;;;35.60;18.30;;;23.40;67.70;;;;;;7839364;28;20320;-60
2022/01/05 18:26:59;;;;;;;33.30;16.50;;;23.50;67.40;;;;;;7839319;28;20205;-60
2022/01/05 18:30:45;;;;;;;32.30;17.30;;;23.70;67.10;;;;;;7838281;28;20253;-59
2022/01/05 18:34:30;;;;;;;28.58;17.13;;;23.80;66.80;;;;;;7838823;28;20178;-60
2022/01/05 18:38:16;;;;;;;22.23;13.93;;;24.00;66.80;;;;;;7838329;28;20178;-60
2022/01/05 18:42:01;;;;;;;23.00;11.40;;;24.00;67.20;;;;;;7838152;28;20590;-60
2022/01/05 18:45:47;;;;;;;23.58;10.27;;;24.10;67.70;;;;;;7838790;28;20285;-58
2022/01/05 18:49:33;;;;;;;20.45;9.02;;;24.10;68.10;;;;;;7838008;28;20178;-59
2022/01/05 18:53:19;;;;;;;22.92;10.25;;;24.00;68.30;;;;;;7838416;28;20185;-58
2022/01/05 18:57:05;;;;;;;18.30;8.52;;;24.00;68.40;;;;;;7838299;28;20210;-60
2022/01/05 19:00:53;;;;;;;22.42;13.75;;;23.90;68.70;;;;;;7837419;28;20205;-59
2022/01/05 19:04:40;;;;;;;17.70;8.23;;;23.90;68.00;;;;;;7837841;28;20254;-60
2022/01/05 19:08:25;;;;;;;18.98;9.95;;;23.80;69.90;;;;;;7837228;28;20170;-58
2022/01/05 19:12:11;;;;;;;21.50;8.98;;;23.70;68.50;;;;;;7837847;28;20185;-59
2022/01/05 19:15:57;;;;;;;35.88;10.98;;;23.60;70.30;;;;;;7838018;28;20205;-60
2022/01/05 19:19:42;;;;;;;49.80;21.63;;;23.50;69.30;;;;;;7836224;28;20208;-58
2022/01/05 19:23:28;;;;;;;32.42;12.27;;;23.40;68.30;;;;;;7837441;28;20741;-58
2022/01/05 19:27:16;;;;;;;29.40;14.70;;;23.40;69.90;;;;;;7816445;28;20281;-60
2022/01/05 19:31:02;;;;;;;30.42;11.90;;;23.30;69.90;;;;;;7805593;28;20700;-58
2022/01/05 19:34:48;;;;;;;30.77;12.10;;;23.30;70.30;;;;;;7813399;28;21087;-58
2022/01/05 19:38:34;;;;;;;33.00;13.00;;;23.30;69.70;;;;;;7836537;28;20178;-59
2022/01/05 19:42:20;;;;;;;39.35;11.00;;;23.20;70.00;;;;;;7837150;28;20208;-59